Главная страница
METAR-TAF:

METAR-TAF

Аэропорты :

Олесунн, Норвегия

широта: 62-34N, долгота: 006-07E, высота над уровнем моря: 2 м

Текущие метеонаблюдения

Эта сводка был подготовлена 31 минут назад, в 01:50 UTC
Ветер 4 Узел от южный
Температура 2°C
Влажность 80%
Давление 995 hPa
Видимость 10 км и более

METAR: ENAL 130150Z AUTO 17004KT 9999 OVC017/// 02/M01 Q0995

Время: 03:21 (02:21 UTC)

Прогноз

Эта сводка был подготовлена 9 часа и 21 минут назад, в 17:00 UTC
Прогноз действительный с 12-го 18 UTC до 12-го 23 UTC
Ветер 8 Узел от восточно-северо-восточный
Видимость 10 км и более
Рассеянная облачность на высоте 6000 фута

TAF: ENAL 121700Z 1218/1223 06008KT 9999 BKN060

Метеонаблюдения и прогнозы для более 4000 аэропортов (сводки METAR и TAF).

Имеющиеся станции представлены на карте желтыми и красными точками.

Чтобы увидеть название станции, наведите на нее мышь.

Затем щелкните, чтобы увидеть метеонаблюдения и метеопрогнозы.

Управление картой: чтобы увеличить масштаб, щелкните зеленые кнопки с черным крестиком; чтобы уменьшить масштаб, щелкните зеленую кнопку с тире; для просмотра соседних карт щелкайте зеленые стрелки.


METAR-TAF: